Tramway, North Carolina
Current Conditions -  °F | °C
As of 9:55 PM on Tuesday 25 Nov 2014 (Local Time) from KTTA Reporting Station
Moderate Rain Moderate Rain  
Wind Chill: 51°   Ceiling: 2000
Heat Index: 51°   Visibility: 10mi
Dew Point: 49°   Wind: 0mph
Humidity: 95%   Direction: NA
Pressure: 30.09"   Gusts: NA
Location:  35.493°N, 79.1765°W
Report Text: KTTA 260255Z AUTO 00000KT 10SM RA SCT005 BKN020 BKN095 10/10 A3009 RMK AO2 T01030095
Loading
Personal Weather Stations






























Interactive Weather Map New forecast layout! Learn more

10-Day Weather Forecast

Advertisements
Track Severe Weather on mobile